Terminal Aerodrome Forecast
Issued by NWS Blacksburg, VA

Current Version | Previous Version | Graphics & Text | Print | Product List | Glossary On
Versions: 1 2 3 4 5 6 7 8 9 10 11 12 13 14 15 16 17 18 19 20
000
FTUS41 KRNK 311935 AAB
TAFBLF
TAF AMD
KBLF 311935Z 3120/0118 26005KT P6SM -RA BKN010 OVC015
     FM312300 29004KT 4SM -RA BR OVC010
     FM010700 32006KT 1SM -SN BR OVC003
     FM011400 01007KT 2SM -SHRASN OVC015=

USA.gov is the U.S. government's official web portal to all federal, state and local government web resources and services.